Conquistador — XPD5425 — position and weather

sailwx.info

Track history (hours):
 
Tides and Currents Weather Stations Pressure Air Temp Water Temp Dewpoint Dewpoint Depression Visibility Wind Speed Wind Dir Waves Ship Positions

Conquistador

Last reported at 2018-May-06 09:16 UTC. Time now 2018-Jun-21 02:52 UTC.
Position N 38°13' E 013°04'.
Warning: this ship's position is 45 days out of date.

Length 13 m.

Type: Pleasure craft. MMSI: 219006077.

Date/timePositionNaut miles runAvg speedWind from/ knotsBaromVisibWave heightAir tempDewpointWater temp
2018-May-06 09:16N 38°13' E 013°04'2 5.9
2018-May-06 08:58N 38°13' E 013°06'3 5.5
2018-May-06 08:29N 38°13' E 013°09'3 5.4
2018-May-06 08:00N 38°13' E 013°13'3 5.3
2018-May-06 07:30N 38°14' E 013°16'3 5.3
2018-May-06 07:00N 38°14' E 013°19'2 0.1
2018-May-05 09:38N 38°12' E 013°20'0 0.3
2018-May-05 09:30N 38°12' E 013°20'0 0.6
2018-May-05 09:00N 38°12' E 013°20'3 5.3
2018-May-05 08:30N 38°11' E 013°24'3 5.2
2018-May-05 07:59N 38°10' E 013°27'3 5.3
2018-May-05 07:30N 38°09' E 013°30'3 5.0
2018-May-05 07:00N 38°07' E 013°32'5 5.3
2018-May-05 06:09N 38°04' E 013°36'1 5.5
2018-May-05 05:58N 38°03' E 013°37'2 5.2
2018-May-05 05:30N 38°02' E 013°40'3 5.2
2018-May-05 04:55N 37°60' E 013°43'  
2018-Apr-30 08:04N 37°59' E 013°43'52 1.1
2018-Apr-28 08:30N 38°19' E 014°44'  
Track history (hours):
 
Tides and Currents Weather Stations Pressure Air Temp Water Temp Dewpoint Dewpoint Depression Visibility Wind Speed Wind Dir Waves Ship Positions

Conquistador

Last reported at 2018-May-06 09:16 UTC. Time now 2018-Jun-21 02:52 UTC.
Position N 38°13' E 013°04'.
Warning: this ship's position is 45 days out of date.

Length 13 m.

Type: Pleasure craft. MMSI: 219006077.

Date/timePositionNaut miles runAvg speedWind from/ knotsBaromVisibWave heightAir tempDewpointWater temp
2018-May-06 09:16N 38°13' E 013°04'2 5.9
2018-May-06 08:58N 38°13' E 013°06'3 5.5
2018-May-06 08:29N 38°13' E 013°09'3 5.4
2018-May-06 08:00N 38°13' E 013°13'3 5.3
2018-May-06 07:30N 38°14' E 013°16'3 5.3
2018-May-06 07:00N 38°14' E 013°19'2 0.1
2018-May-05 09:38N 38°12' E 013°20'0 0.3
2018-May-05 09:30N 38°12' E 013°20'0 0.6
2018-May-05 09:00N 38°12' E 013°20'3 5.3
2018-May-05 08:30N 38°11' E 013°24'3 5.2
2018-May-05 07:59N 38°10' E 013°27'3 5.3
2018-May-05 07:30N 38°09' E 013°30'3 5.0
2018-May-05 07:00N 38°07' E 013°32'5 5.3
2018-May-05 06:09N 38°04' E 013°36'1 5.5
2018-May-05 05:58N 38°03' E 013°37'2 5.2
2018-May-05 05:30N 38°02' E 013°40'3 5.2
2018-May-05 04:55N 37°60' E 013°43'  
2018-Apr-30 08:04N 37°59' E 013°43'52 1.1
2018-Apr-28 08:30N 38°19' E 014°44'  

Dump ship's entire track history